Time;durP1;ratioP1;P1;durP2;ratioP2;P2;SDS_P1;SDS_P2;PMS_P1;PMS_P2;Temp;Humidity;BMP_temperature;BMP_pressure;BME280_temperature;BME280_humidity;BME280_pressure;Samples;Min_cycle;Max_cycle;Signal;HPM_P1;HPM_P2
2023/09/25 00:01:39;;;;;;;6.50;2.50;;;;;;;25.33;64.87;98995.03;5073677;28;20685;-87
2023/09/25 00:04:07;;;;;;;4.30;2.70;;;;;;;25.37;64.70;98993.66;5055377;28;20197;-86
2023/09/25 00:06:32;;;;;;;4.10;2.17;;;;;;;25.38;64.40;98998.00;5055500;28;20185;-87
2023/09/25 00:08:58;;;;;;;6.63;2.30;;;;;;;25.40;64.57;98987.94;5055445;28;20732;-86
2023/09/25 00:11:25;;;;;;;4.17;2.30;;;;;;;25.36;64.48;99002.72;5073185;28;20202;-86
2023/09/25 00:13:52;;;;;;;5.70;2.40;;;;;;;25.45;63.86;98992.75;5054749;28;20295;-87
2023/09/25 00:16:18;;;;;;;5.17;2.30;;;;;;;25.49;63.77;98991.44;5072953;28;20184;-86
2023/09/25 00:18:44;;;;;;;6.03;2.50;;;;;;;25.54;63.33;98983.69;5073026;28;20534;-86
2023/09/25 00:21:09;;;;;;;5.67;2.10;;;;;;;25.57;63.15;98983.31;5055188;28;20173;-86
2023/09/25 00:23:35;;;;;;;3.67;1.77;;;;;;;25.57;63.20;98984.16;5072498;28;20709;-86
2023/09/25 00:26:06;;;;;;;5.70;2.30;;;;;;;25.53;63.36;98985.53;5073274;28;20575;-87
2023/09/25 00:28:32;;;;;;;3.97;2.20;;;;;;;25.50;63.99;98987.72;5072751;28;20708;-87
2023/09/25 00:30:58;;;;;;;3.83;2.20;;;;;;;25.53;63.85;98992.72;5038194;28;20181;-87
2023/09/25 00:33:24;;;;;;;3.73;2.20;;;;;;;25.47;63.88;98996.97;5055217;28;20540;-87
2023/09/25 00:35:51;;;;;;;3.87;2.00;;;;;;;25.51;63.93;98997.44;5055119;28;20623;-87
2023/09/25 00:38:17;;;;;;;4.80;2.30;;;;;;;25.53;63.86;99000.78;5055328;28;20650;-86
2023/09/25 00:40:43;;;;;;;4.20;2.40;;;;;;;25.55;63.61;98994.22;5072725;28;20291;-86
2023/09/25 00:43:11;;;;;;;5.77;2.70;;;;;;;25.64;63.55;98992.31;5072921;28;20638;-86
2023/09/25 00:45:40;;;;;;;4.57;2.03;;;;;;;25.68;63.36;98990.13;5055260;28;20196;-86
2023/09/25 00:48:20;;;;;;;3.80;2.10;;;;;;;25.69;63.41;98997.97;5072485;28;20177;-86
2023/09/25 00:50:46;;;;;;;5.07;2.13;;;;;;;25.72;62.95;98994.09;5072698;28;20224;-86
2023/09/25 00:53:11;;;;;;;4.67;2.30;;;;;;;25.74;62.78;98998.28;5054659;28;20180;-86
2023/09/25 00:55:38;;;;;;;4.97;2.40;;;;;;;25.74;62.88;99000.13;5055045;28;20529;-87
2023/09/25 00:58:05;;;;;;;5.33;2.30;;;;;;;25.71;62.98;99012.06;5055202;28;20617;-86
2023/09/25 01:00:35;;;;;;;5.00;2.40;;;;;;;25.74;62.68;99009.03;5072412;28;20256;-87
2023/09/25 01:03:02;;;;;;;3.40;2.40;;;;;;;25.73;63.17;99002.00;5055091;28;20208;-87
2023/09/25 01:05:28;;;;;;;4.57;2.73;;;;;;;25.77;63.00;99007.81;5075712;28;20189;-87
2023/09/25 01:07:55;;;;;;;7.20;3.50;;;;;;;25.73;63.07;99004.69;5076514;28;20690;-86
2023/09/25 01:10:21;;;;;;;8.80;4.00;;;;;;;25.71;62.98;99004.00;5076553;28;20205;-87
2023/09/25 01:12:48;;;;;;;7.07;4.27;;;;;;;25.66;63.36;99003.72;5076381;28;20188;-87
2023/09/25 01:15:14;;;;;;;8.60;5.10;;;;;;;25.65;63.14;99002.88;5058788;28;20219;-86
2023/09/25 01:17:42;;;;;;;8.87;4.23;;;;;;;25.63;63.62;98999.53;5058370;28;20566;-86
2023/09/25 01:20:17;;;;;;;8.60;4.77;;;;;;;25.59;63.33;99003.59;5058188;28;20180;-87
2023/09/25 01:22:48;;;;;;;8.27;4.87;;;;;;;25.54;63.53;99003.31;5076272;28;20567;-86
2023/09/25 01:25:16;;;;;;;10.00;5.27;;;;;;;25.49;64.04;99007.53;5058937;28;20276;-87
2023/09/25 01:27:43;;;;;;;9.70;4.23;;;;;;;25.45;63.48;99006.16;5058102;28;20192;-86
2023/09/25 01:30:10;;;;;;;9.47;5.57;;;;;;;25.44;63.80;99004.53;5075726;28;20617;-85
2023/09/25 01:32:37;;;;;;;12.10;5.70;;;;;;;25.46;64.01;99013.25;5057725;28;20184;-87
2023/09/25 01:35:11;;;;;;;8.53;5.40;;;;;;;25.46;64.13;99013.25;5075687;28;20169;-87
2023/09/25 01:37:38;;;;;;;8.83;5.27;;;;;;;25.48;63.57;99013.91;5076075;28;20161;-87
2023/09/25 01:40:11;;;;;;;9.07;4.87;;;;;;;25.44;63.50;99009.88;5075604;28;20185;-87
2023/09/25 01:42:38;;;;;;;9.37;4.17;;;;;;;25.43;63.29;99010.88;5058045;28;20161;-87
2023/09/25 01:45:08;;;;;;;7.03;4.03;;;;;;;25.40;63.52;99017.44;5075237;28;20521;-87
2023/09/25 01:47:35;;;;;;;5.57;3.57;;;;;;;25.39;63.46;99017.63;5057940;28;20177;-87
2023/09/25 01:50:02;;;;;;;8.23;4.10;;;;;;;25.35;63.45;99014.47;5057823;28;20180;-87
2023/09/25 01:52:29;;;;;;;7.90;3.50;;;;;;;25.34;63.24;99025.38;5076091;28;20678;-87
2023/09/25 01:54:57;;;;;;;7.97;3.33;;;;;;;25.28;63.46;99013.50;5047742;28;20182;-87
2023/09/25 01:57:22;;;;;;;7.80;4.40;;;;;;;25.23;63.62;99028.47;5038132;28;20263;-87
2023/09/25 01:59:49;;;;;;;8.23;4.60;;;;;;;25.21;63.91;99030.50;5038647;28;20209;-87
2023/09/25 02:02:16;;;;;;;14.80;6.30;;;;;;;25.22;63.67;99032.16;5075151;28;20584;-87
2023/09/25 02:04:42;;;;;;;9.93;6.17;;;;;;;25.20;63.94;99028.81;5057600;28;20288;-87
2023/09/25 02:07:07;;;;;;;9.53;5.40;;;;;;;25.18;63.84;99030.84;5075977;28;20181;-87
2023/09/25 02:09:34;;;;;;;11.87;6.23;;;;;;;25.19;63.50;99027.97;5074897;28;20195;-87
2023/09/25 02:11:59;;;;;;;9.87;5.63;;;;;;;25.23;63.25;99031.16;5075515;28;20169;-87
2023/09/25 02:14:26;;;;;;;9.67;5.33;;;;;;;25.22;63.26;99032.16;5075590;28;20234;-86
2023/09/25 02:16:53;;;;;;;8.50;4.43;;;;;;;25.24;63.61;99032.78;5073829;28;20428;-87
2023/09/25 02:19:20;;;;;;;7.73;4.43;;;;;;;25.23;63.47;99036.50;5056954;28;20181;-86
2023/09/25 02:21:45;;;;;;;10.57;4.10;;;;;;;25.23;63.82;99034.66;5057006;28;20250;-87
2023/09/25 02:24:12;;;;;;;7.03;4.57;;;;;;;25.20;63.82;99036.84;5057199;28;20193;-87
2023/09/25 02:26:39;;;;;;;10.83;4.03;;;;;;;25.16;64.23;99035.56;5057133;28;20177;-87
2023/09/25 02:29:05;;;;;;;6.43;3.77;;;;;;;25.14;64.43;99037.53;5057013;28;20256;-86
2023/09/25 02:31:32;;;;;;;7.53;3.67;;;;;;;25.14;64.57;99041.06;5074367;28;20255;-86
2023/09/25 02:33:57;;;;;;;6.20;3.67;;;;;;;25.16;64.95;99038.22;5075181;28;20489;-87
2023/09/25 02:36:23;;;;;;;6.60;3.20;;;;;;;25.17;65.16;99038.03;5074331;28;20192;-87
2023/09/25 02:38:49;;;;;;;8.20;3.77;;;;;;;25.20;64.82;99040.38;5056888;28;20165;-86
2023/09/25 02:41:15;;;;;;;9.40;3.93;;;;;;;25.21;64.65;99042.03;5074506;28;20165;-86
2023/09/25 02:43:40;;;;;;;5.93;3.57;;;;;;;25.22;65.01;99048.25;5074198;28;20180;-87
2023/09/25 02:46:06;;;;;;;7.53;3.70;;;;;;;25.26;64.85;99046.91;5074346;28;20259;-87
2023/09/25 02:48:31;;;;;;;7.73;4.07;;;;;;;25.29;64.80;99047.34;5056610;28;20301;-87
2023/09/25 02:50:57;;;;;;;5.87;3.60;;;;;;;25.31;64.48;99047.19;5056315;28;20251;-86
2023/09/25 02:53:22;;;;;;;6.53;3.50;;;;;;;25.34;64.36;99053.03;5072016;28;20255;-87
2023/09/25 02:55:49;;;;;;;12.43;5.00;;;;;;;25.42;64.71;99052.19;5054341;28;20657;-87
2023/09/25 02:58:15;;;;;;;7.90;4.50;;;;;;;25.42;64.33;99050.31;5054604;28;20535;-87
2023/09/25 03:00:40;;;;;;;6.73;4.30;;;;;;;25.44;64.31;99053.66;5074368;28;20611;-86
2023/09/25 03:03:07;;;;;;;6.53;4.10;;;;;;;25.44;64.10;99044.78;5056856;28;20208;-87
2023/09/25 03:05:32;;;;;;;9.40;4.70;;;;;;;25.46;64.27;99057.03;5056514;28;20196;-87
2023/09/25 03:07:59;;;;;;;9.30;4.50;;;;;;;25.46;64.37;99056.19;5074268;28;20184;-86
2023/09/25 03:10:25;;;;;;;8.53;4.27;;;;;;;25.49;64.45;99056.69;5073699;28;20183;-87
2023/09/25 03:12:52;;;;;;;9.93;4.63;;;;;;;25.51;64.11;99057.34;5056283;28;20263;-87
2023/09/25 03:15:18;;;;;;;6.60;3.53;;;;;;;25.54;64.05;99053.47;5074129;28;20165;-87
2023/09/25 03:17:44;;;;;;;13.07;4.30;;;;;;;25.57;63.87;99059.31;5073813;28;20181;-86
2023/09/25 03:20:17;;;;;;;9.90;4.20;;;;;;;25.64;64.15;99064.81;5073772;28;20194;-87
2023/09/25 03:22:44;;;;;;;9.63;4.90;;;;;;;25.61;64.12;99060.63;5073898;28;20171;-86
2023/09/25 03:25:13;;;;;;;9.13;5.47;;;;;;;25.52;64.27;99060.88;5073894;28;20212;-87
2023/09/25 03:27:38;;;;;;;6.90;4.30;;;;;;;25.51;64.25;99069.91;5073617;28;20255;-87
2023/09/25 03:30:05;;;;;;;12.83;6.17;;;;;;;25.49;64.18;99063.91;5055804;28;20559;-87
2023/09/25 03:32:32;;;;;;;9.53;5.20;;;;;;;25.47;64.30;99057.88;5073556;28;20543;-86
2023/09/25 03:34:58;;;;;;;12.33;5.17;;;;;;;25.47;64.00;99063.25;5073974;28;20201;-86
2023/09/25 03:37:25;;;;;;;8.33;5.33;;;;;;;25.46;64.36;99065.09;5073482;28;20291;-87
2023/09/25 03:39:51;;;;;;;12.50;5.60;;;;;;;25.38;64.29;99064.25;5055839;28;20189;-87
2023/09/25 03:42:18;;;;;;;8.90;5.03;;;;;;;25.38;64.48;99065.09;5056066;28;20181;-87
2023/09/25 03:44:44;;;;;;;13.80;5.17;;;;;;;25.39;64.36;99061.38;5055684;28;20189;-87
2023/09/25 03:47:10;;;;;;;11.83;4.70;;;;;;;25.36;64.17;99063.59;5055772;28;20192;-87
2023/09/25 03:49:37;;;;;;;8.97;5.53;;;;;;;25.33;64.37;99062.13;5073302;28;20169;-86
2023/09/25 03:52:02;;;;;;;12.37;5.90;;;;;;;25.33;64.49;99066.63;5073015;28;20803;-87
2023/09/25 03:54:29;;;;;;;15.77;5.67;;;;;;;25.34;64.53;99068.31;5055955;28;20185;-87
2023/09/25 03:56:56;;;;;;;18.47;4.90;;;;;;;25.34;64.50;99068.31;5073266;28;20181;-86
2023/09/25 03:59:22;;;;;;;10.13;5.20;;;;;;;25.31;64.61;99074.88;5055732;28;20181;-86
2023/09/25 04:01:48;;;;;;;13.87;6.23;;;;;;;25.28;64.57;99080.59;5072992;28;20184;-87
2023/09/25 04:04:13;;;;;;;11.30;5.47;;;;;;;25.17;64.96;99080.97;5073621;28;20207;-87
2023/09/25 04:06:40;;;;;;;13.10;7.03;;;;;;;25.18;64.94;99084.50;5073108;28;20181;-87
2023/09/25 04:09:07;;;;;;;15.37;7.60;;;;;;;25.24;64.83;99086.47;5059232;28;20190;-87
2023/09/25 04:11:34;;;;;;;14.97;7.00;;;;;;;25.27;64.37;99080.75;5051988;28;20226;-87
2023/09/25 04:14:01;;;;;;;11.83;6.60;;;;;;;25.25;64.77;99091.66;5052327;28;20184;-86
2023/09/25 04:16:33;;;;;;;12.20;6.93;;;;;;;25.24;64.64;99099.88;5073032;28;20537;-86
2023/09/25 04:18:59;;;;;;;13.70;6.80;;;;;;;25.19;65.04;99103.09;5073196;28;20165;-87
2023/09/25 04:21:26;;;;;;;9.90;5.93;;;;;;;25.20;64.96;99110.13;5055649;28;20183;-87
2023/09/25 04:23:53;;;;;;;14.10;7.60;;;;;;;25.30;64.69;99101.88;5055054;28;20181;-87
2023/09/25 04:26:18;;;;;;;12.07;7.00;;;;;;;25.39;64.51;99103.50;5055289;28;20177;-87
2023/09/25 04:28:45;;;;;;;12.13;6.90;;;;;;;25.39;64.16;99112.38;5072902;28;20177;-86
2023/09/25 04:31:11;;;;;;;10.83;6.03;;;;;;;25.48;63.60;99105.16;5055383;28;20238;-87
2023/09/25 04:33:38;;;;;;;9.60;5.93;;;;;;;25.47;63.91;99119.63;5047348;28;20271;-87
2023/09/25 04:36:08;;;;;;;14.10;6.23;;;;;;;25.48;63.81;99124.78;5073058;28;20578;-87
2023/09/25 04:38:36;;;;;;;7.43;4.53;;;;;;;25.48;63.53;99119.44;5073137;28;20169;-87
2023/09/25 04:41:03;;;;;;;11.43;4.27;;;;;;;25.56;63.37;99122.06;5076556;28;20215;-87
2023/09/25 04:43:32;;;;;;;7.43;3.40;;;;;;;25.60;63.23;99118.00;5059129;28;20184;-87
2023/09/25 04:45:58;;;;;;;6.10;3.17;;;;;;;25.65;63.27;99115.63;5059157;28;20193;-87
2023/09/25 04:48:24;;;;;;;6.20;3.90;;;;;;;25.68;63.01;99117.16;5076229;28;20270;-87
2023/09/25 04:50:49;;;;;;;7.23;4.50;;;;;;;25.70;62.78;99116.97;5059193;28;20185;-87
2023/09/25 04:53:19;;;;;;;7.27;4.07;;;;;;;25.68;62.77;99119.84;5076418;28;20185;-87
2023/09/25 04:55:46;;;;;;;9.33;3.43;;;;;;;25.71;62.75;99119.47;5077117;28;20157;-87
2023/09/25 04:58:12;;;;;;;14.00;4.70;;;;;;;25.70;62.80;99131.22;5076368;28;20177;-87
2023/09/25 05:00:38;;;;;;;10.23;4.13;;;;;;;25.70;62.60;99128.53;5058959;28;20188;-87
2023/09/25 05:03:04;;;;;;;9.27;4.90;;;;;;;25.78;62.38;99128.50;5076695;28;20173;-87
2023/09/25 05:05:31;;;;;;;8.70;4.53;;;;;;;25.79;62.43;99126.63;5076847;28;20551;-86
2023/09/25 05:07:56;;;;;;;8.00;4.97;;;;;;;25.74;62.23;99119.09;5076068;28;20181;-87
2023/09/25 05:10:27;;;;;;;8.13;5.27;;;;;;;25.75;62.46;99133.38;5076309;28;20751;-87
2023/09/25 05:12:55;;;;;;;9.23;5.60;;;;;;;25.80;62.24;99125.63;5076455;28;20521;-87
2023/09/25 05:15:23;;;;;;;10.90;5.40;;;;;;;25.70;62.39;99131.22;5056828;28;20228;-86
2023/09/25 05:17:50;;;;;;;8.57;5.77;;;;;;;25.64;62.55;99134.59;5051879;28;20313;-87
2023/09/25 05:20:18;;;;;;;10.90;5.17;;;;;;;25.63;62.63;99140.97;5076632;28;20188;-87
2023/09/25 05:22:51;;;;;;;8.03;5.23;;;;;;;25.66;62.75;99143.31;5058073;28;20568;-87
2023/09/25 05:25:19;;;;;;;10.03;5.63;;;;;;;25.77;62.55;99145.63;5058859;28;20540;-87
2023/09/25 05:27:47;;;;;;;12.57;5.63;;;;;;;25.84;62.00;99141.19;5058186;28;20698;-87
2023/09/25 05:30:14;;;;;;;9.70;4.77;;;;;;;25.88;61.70;99139.84;5075937;28;20203;-87
2023/09/25 05:32:43;;;;;;;9.47;4.67;;;;;;;25.94;61.26;99147.16;5058548;28;20169;-87
2023/09/25 05:35:10;;;;;;;8.37;4.27;;;;;;;26.00;60.87;99140.25;5075724;28;20176;-87
2023/09/25 05:37:37;;;;;;;9.37;4.20;;;;;;;26.04;60.75;99153.16;5058118;28;20234;-87
2023/09/25 05:40:11;;;;;;;9.30;4.30;;;;;;;26.07;60.62;99142.03;5058094;28;20264;-87
2023/09/25 05:42:39;;;;;;;12.30;4.97;;;;;;;26.04;60.17;99138.91;5075609;28;20172;-86
2023/09/25 05:45:06;;;;;;;8.27;4.33;;;;;;;26.06;60.58;99145.75;5058387;28;20276;-86
2023/09/25 05:47:38;;;;;;;8.13;4.50;;;;;;;26.07;60.63;99150.09;5041632;28;20638;-87
2023/09/25 05:50:12;;;;;;;5.77;3.57;;;;;;;26.13;60.52;99146.75;5057601;28;20530;-87
2023/09/25 05:52:40;;;;;;;5.63;3.53;;;;;;;26.22;60.54;99153.75;5075842;28;20271;-87
2023/09/25 05:55:08;;;;;;;8.33;3.90;;;;;;;26.30;60.04;99158.22;5058179;28;20181;-87
2023/09/25 05:57:35;;;;;;;5.97;3.30;;;;;;;26.29;59.72;99145.78;5057759;28;20204;-87
2023/09/25 06:00:00;;;;;;;6.83;3.00;;;;;;;26.34;59.49;99162.19;5057490;28;20570;-86
2023/09/25 06:02:27;;;;;;;6.43;3.20;;;;;;;26.28;59.14;99156.72;5075167;28;20169;-87
2023/09/25 06:04:54;;;;;;;7.20;3.40;;;;;;;26.24;59.60;99158.94;5075054;28;20220;-86
2023/09/25 06:07:20;;;;;;;9.60;3.33;;;;;;;26.22;59.68;99161.81;5062067;28;20177;-86
2023/09/25 06:09:47;;;;;;;6.83;3.27;;;;;;;26.19;59.90;99155.94;4923437;28;20231;-87
2023/09/25 06:12:13;;;;;;;9.93;3.30;;;;;;;26.17;59.88;99164.19;4997895;28;20210;-87
2023/09/25 06:14:40;;;;;;;5.17;3.10;;;;;;;26.28;59.40;99162.09;4998059;28;20663;-88
2023/09/25 06:17:09;;;;;;;5.13;2.90;;;;;;;26.32;59.40;99161.56;5015709;28;20175;-87
2023/09/25 06:19:35;;;;;;;6.53;3.60;;;;;;;26.32;59.04;99160.72;4998170;28;20179;-87
2023/09/25 06:22:01;;;;;;;7.07;3.73;;;;;;;26.36;58.97;99170.09;5014925;28;20656;-87
2023/09/25 06:24:26;;;;;;;5.50;3.33;;;;;;;26.39;58.89;99180.50;4998346;28;20238;-87
2023/09/25 06:26:54;;;;;;;8.10;3.20;;;;;;;26.46;58.19;99182.28;5015854;28;20719;-87
2023/09/25 06:29:21;;;;;;;9.27;3.60;;;;;;;26.52;58.30;99183.41;5016592;28;20266;-87
2023/09/25 06:31:48;;;;;;;6.17;3.23;;;;;;;26.54;57.73;99187.59;5034941;28;20183;-87
2023/09/25 06:34:15;;;;;;;10.87;4.60;;;;;;;26.56;57.59;99184.72;5017330;28;20643;-88
2023/09/25 06:36:42;;;;;;;8.30;3.63;;;;;;;26.56;57.93;99184.72;5034130;28;20602;-87
2023/09/25 06:39:12;;;;;;;5.63;3.60;;;;;;;26.54;57.74;99192.13;5034891;28;20651;-87
2023/09/25 06:41:39;;;;;;;9.77;3.60;;;;;;;26.57;57.72;99194.47;5017133;28;20187;-87
2023/09/25 06:44:05;;;;;;;7.03;3.57;;;;;;;26.55;57.59;99202.69;5016601;28;20269;-87
2023/09/25 06:46:35;;;;;;;10.17;4.67;;;;;;;26.51;57.66;99198.72;5034430;28;20341;-87
2023/09/25 06:49:02;;;;;;;8.77;4.63;;;;;;;26.56;57.98;99200.84;5034402;28;20197;-87
2023/09/25 06:51:29;;;;;;;11.33;5.63;;;;;;;26.64;57.27;99198.09;5033853;28;20579;-87
2023/09/25 06:53:56;;;;;;;12.50;4.63;;;;;;;26.69;57.60;99206.44;5034161;28;20190;-87
2023/09/25 06:56:23;;;;;;;8.03;4.43;;;;;;;26.74;57.91;99204.06;5034118;28;20183;-87
2023/09/25 06:58:51;;;;;;;13.10;6.40;;;;;;;26.84;57.23;99196.59;5033883;28;20217;-87
2023/09/25 07:01:19;;;;;;;15.97;5.90;;;;;;;26.96;56.96;99195.16;5016241;28;20190;-87
2023/09/25 07:03:47;;;;;;;14.33;7.43;;;;;;;27.00;57.08;99192.91;5034239;28;20216;-87
2023/09/25 07:06:14;;;;;;;11.50;6.23;;;;;;;27.05;56.70;99191.34;5016106;28;20292;-87
2023/09/25 07:08:41;;;;;;;10.30;5.20;;;;;;;27.15;57.22;99199.16;5016435;28;20244;-88
2023/09/25 07:11:06;;;;;;;11.20;6.03;;;;;;;27.19;56.54;99195.06;5016665;28;20182;-88
2023/09/25 07:13:32;;;;;;;9.40;5.33;;;;;;;27.27;56.46;99201.22;5016304;28;20196;-87
2023/09/25 07:16:05;;;;;;;11.17;5.23;;;;;;;27.32;55.95;99203.34;5016697;28;20261;-88
2023/09/25 07:18:30;;;;;;;14.23;5.83;;;;;;;27.35;56.00;99202.97;5033646;28;20710;-87
2023/09/25 07:20:56;;;;;;;11.03;6.77;;;;;;;27.42;55.90;99206.59;5033656;28;20186;-87
2023/09/25 07:23:23;;;;;;;13.20;6.30;;;;;;;27.49;55.71;99195.94;5016527;28;20261;-87
2023/09/25 07:25:59;;;;;;;18.10;7.75;;;;;;;27.46;55.87;99207.09;5016215;28;20232;-88
2023/09/25 07:28:24;;;;;;;11.10;7.00;;;;;;;27.48;57.00;99207.72;5033264;28;20186;-87
2023/09/25 07:30:51;;;;;;;19.65;8.82;;;;;;;27.53;56.90;99206.16;5032466;28;20655;-87
2023/09/25 07:33:17;;;;;;;12.53;7.00;;;;;;;27.58;57.11;99202.88;5014499;28;20620;-88
2023/09/25 07:35:44;;;;;;;13.45;6.53;;;;;;;27.88;56.23;99201.84;5031405;28;20202;-87
2023/09/25 07:38:10;;;;;;;16.95;8.30;;;;;;;28.06;55.42;99202.28;5014548;28;20265;-87
2023/09/25 07:40:37;;;;;;;12.50;7.78;;;;;;;28.11;55.77;99199.84;5014066;28;20213;-87
2023/09/25 07:43:03;;;;;;;15.40;6.78;;;;;;;28.30;54.99;99199.19;5031767;28;20184;-86
2023/09/25 07:45:32;;;;;;;14.20;8.98;;;;;;;28.51;53.35;99193.81;5014618;28;20234;-88
2023/09/25 07:47:59;;;;;;;16.83;9.23;;;;;;;28.61;53.26;99199.78;5016206;28;20187;-88
2023/09/25 07:50:26;;;;;;;13.50;8.73;;;;;;;28.77;53.21;99200.53;5033943;28;20174;-87
2023/09/25 07:52:54;;;;;;;15.80;8.80;;;;;;;28.96;53.23;99197.13;5015688;28;20232;-87
2023/09/25 07:55:21;;;;;;;19.83;8.82;;;;;;;29.21;50.71;99196.53;5033480;28;20265;-90
2023/09/25 07:57:49;;;;;;;15.73;9.43;;;;;;;29.13;51.37;99201.22;5015894;28;20272;-88
2023/09/25 08:02:49;;;;;;;12.45;7.75;;;;;;;29.33;50.65;99206.75;5033359;28;20267;-88
2023/09/25 08:05:21;;;;;;;14.75;7.45;;;;;;;29.53;49.60;99207.72;5033707;28;20285;-88
2023/09/25 08:07:48;;;;;;;12.32;6.90;;;;;;;29.75;49.08;99206.56;5015736;28;20186;-87
2023/09/25 08:10:17;;;;;;;9.98;7.18;;;;;;;29.75;49.58;99201.16;5032905;28;20268;-88
2023/09/25 08:12:43;;;;;;;10.30;6.88;;;;;;;29.86;48.78;99205.19;5024051;28;20306;-88
2023/09/25 08:15:10;;;;;;;12.10;7.55;;;;;;;29.93;48.19;99195.25;4995167;28;20266;-88
2023/09/25 08:17:41;;;;;;;16.02;7.10;;;;;;;29.98;47.73;99185.47;5013220;28;20229;-88
2023/09/25 08:20:14;;;;;;;13.68;6.75;;;;;;;30.07;47.20;99183.44;5028045;28;20178;-88
2023/09/25 08:22:41;;;;;;;11.73;6.45;;;;;;;29.96;47.60;99175.91;5015622;28;20182;-88
2023/09/25 08:25:08;;;;;;;14.18;7.32;;;;;;;30.08;47.00;99190.50;5032905;28;20194;-88
2023/09/25 08:27:34;;;;;;;12.73;6.90;;;;;;;30.10;46.95;99167.63;5032817;28;20244;-88
2023/09/25 08:29:59;;;;;;;12.60;7.53;;;;;;;30.09;46.82;99170.53;5032753;28;20178;-89
2023/09/25 08:32:27;;;;;;;12.63;6.75;;;;;;;29.86;47.73;99186.28;5032825;28;20178;-87
2023/09/25 08:34:53;;;;;;;9.10;5.75;;;;;;;29.80;47.70;99183.34;5032749;28;20186;-88
2023/09/25 08:37:19;;;;;;;11.00;6.15;;;;;;;29.91;47.45;99183.78;5032494;28;20197;-88
2023/09/25 08:39:46;;;;;;;12.48;6.07;;;;;;;30.07;46.72;99183.44;5033081;28;20197;-88
2023/09/25 08:42:13;;;;;;;15.90;5.97;;;;;;;30.13;46.66;99188.88;5015305;28;20194;-88
2023/09/25 08:44:39;;;;;;;9.65;5.28;;;;;;;30.16;46.82;99182.22;5032137;28;20195;-88
2023/09/25 08:47:06;;;;;;;10.93;5.53;;;;;;;30.34;45.99;99177.06;5032864;28;20243;-88
2023/09/25 08:49:36;;;;;;;11.65;5.00;;;;;;;30.43;45.70;99173.97;5015380;28;20174;-88
2023/09/25 08:52:03;;;;;;;9.60;5.40;;;;;;;30.60;45.08;99185.22;5014806;28;20230;-88
2023/09/25 08:54:29;;;;;;;8.55;5.43;;;;;;;30.62;44.76;99176.88;5032674;28;20178;-88
2023/09/25 08:56:56;;;;;;;11.93;6.18;;;;;;;30.80;44.63;99186.06;5015220;28;20184;-88
2023/09/25 08:59:24;;;;;;;11.00;5.63;;;;;;;30.77;45.06;99174.78;5015203;28;20514;-88
2023/09/25 09:01:51;;;;;;;10.88;6.00;;;;;;;30.76;44.83;99179.41;5014875;28;20193;-88
2023/09/25 09:04:16;;;;;;;12.13;6.53;;;;;;;30.96;43.91;99185.66;5032220;28;20208;-88
2023/09/25 09:06:43;;;;;;;10.63;5.90;;;;;;;30.84;43.60;99179.19;5032523;28;20536;-88
2023/09/25 09:09:09;;;;;;;10.70;6.25;;;;;;;30.79;44.13;99183.56;5032662;28;20323;-89
2023/09/25 09:11:36;;;;;;;8.40;5.80;;;;;;;30.80;44.30;99174.38;5032406;28;20230;-89
2023/09/25 09:14:03;;;;;;;11.73;4.68;;;;;;;30.85;44.08;99172.72;5032381;28;20178;-89
2023/09/25 09:16:30;;;;;;;6.45;3.83;;;;;;;30.72;43.88;99170.03;5032902;28;20523;-89
2023/09/25 09:19:09;;;;;;;6.70;4.18;;;;;;;30.65;44.30;99173.78;5032281;28;20675;-88
2023/09/25 09:21:36;;;;;;;6.78;4.22;;;;;;;30.81;43.03;99173.34;5032541;28;20171;-88
2023/09/25 09:24:04;;;;;;;5.75;3.90;;;;;;;30.73;43.56;99170.84;5032052;28;20178;-88
2023/09/25 09:26:32;;;;;;;7.90;4.68;;;;;;;30.66;43.67;99178.97;5035911;28;20174;-88
2023/09/25 09:28:59;;;;;;;6.20;4.25;;;;;;;30.70;43.43;99168.56;5035810;28;20624;-88
2023/09/25 09:31:25;;;;;;;7.45;4.30;;;;;;;30.81;43.50;99176.91;5018158;28;20554;-88
2023/09/25 09:33:55;;;;;;;5.57;3.80;;;;;;;30.66;44.31;99165.44;5035289;28;20196;-88
2023/09/25 09:36:23;;;;;;;6.32;4.40;;;;;;;30.61;44.16;99170.63;5018652;28;20178;-87
2023/09/25 09:38:52;;;;;;;9.27;4.63;;;;;;;30.65;43.98;99166.50;5018067;28;20190;-89
2023/09/25 09:41:19;;;;;;;7.72;4.13;;;;;;;30.84;44.39;99162.13;5035643;28;20257;-88
2023/09/25 09:43:47;;;;;;;6.63;4.38;;;;;;;30.91;44.59;99161.09;5035635;28;20182;-87
2023/09/25 09:46:16;;;;;;;7.30;4.30;;;;;;;31.00;43.47;99165.22;5035336;28;20202;-88
2023/09/25 09:48:46;;;;;;;5.63;4.15;;;;;;;31.03;43.65;99159.41;5035704;28;20319;-88
2023/09/25 09:51:15;;;;;;;5.43;4.05;;;;;;;31.05;43.30;99152.94;5025077;28;20186;-88
2023/09/25 09:53:43;;;;;;;6.25;3.78;;;;;;;31.24;43.31;99142.06;4997271;28;20171;-87
2023/09/25 09:56:09;;;;;;;5.65;3.70;;;;;;;31.36;42.17;99136.81;5018938;28;20174;-88
2023/09/25 09:58:37;;;;;;;8.30;4.30;;;;;;;31.57;41.70;99150.97;5034235;28;20651;-88
2023/09/25 10:01:04;;;;;;;8.50;3.42;;;;;;;31.57;41.30;99147.41;5016799;28;20265;-87
2023/09/25 10:03:31;;;;;;;5.95;3.33;;;;;;;31.56;42.37;99141.16;5034155;28;20265;-88
2023/09/25 10:05:59;;;;;;;6.93;3.38;;;;;;;31.48;41.89;99146.81;5033958;28;20682;-88
2023/09/25 10:08:25;;;;;;;9.60;2.80;;;;;;;31.57;41.91;99142.00;5034267;28;20186;-88
2023/09/25 10:10:52;;;;;;;6.90;3.03;;;;;;;31.69;41.65;99134.84;5033799;28;20182;-88
2023/09/25 10:13:29;;;;;;;5.95;3.25;;;;;;;31.65;41.19;99114.66;5033692;28;20182;-90
2023/09/25 10:16:01;;;;;;;4.72;2.80;;;;;;;31.79;40.93;99121.66;5046542;28;20184;-88
2023/09/25 10:18:29;;;;;;;7.22;3.35;;;;;;;31.86;41.11;99117.03;5012883;28;20600;-88
2023/09/25 10:21:08;;;;;;;7.35;2.95;;;;;;;31.90;40.65;99120.97;5012872;28;20236;-88
2023/09/25 10:23:39;;;;;;;5.00;3.03;;;;;;;31.97;40.08;99115.53;5014956;28;20194;-88
2023/09/25 10:26:16;;;;;;;5.65;2.80;;;;;;;31.97;40.58;99116.31;5032729;28;20222;-88
2023/09/25 10:28:43;;;;;;;8.80;3.13;;;;;;;32.15;40.08;99115.63;5032766;28;20174;-88
2023/09/25 10:31:19;;;;;;;8.23;3.30;;;;;;;31.95;41.09;99115.72;5032841;28;20196;-89
2023/09/25 10:33:59;;;;;;;5.57;3.25;;;;;;;32.01;39.82;99103.19;5033963;28;20166;-88
2023/09/25 10:36:42;;;;;;;6.93;3.08;;;;;;;32.04;39.98;99103.59;5032675;28;20186;-88
2023/09/25 10:39:09;;;;;;;9.10;3.20;;;;;;;31.86;40.89;99099.94;5034271;28;20182;-88
2023/09/25 10:41:37;;;;;;;6.53;2.25;;;;;;;31.89;39.81;99107.63;5033501;28;20605;-88
2023/09/25 10:44:04;;;;;;;5.10;2.92;;;;;;;31.87;40.00;99107.84;5033624;28;20174;-88
2023/09/25 10:46:30;;;;;;;4.95;2.75;;;;;;;32.17;38.99;99102.69;5033686;28;20210;-88
2023/09/25 10:48:58;;;;;;;5.18;2.50;;;;;;;32.44;38.70;99092.47;5033595;28;20628;-88
2023/09/25 10:51:23;;;;;;;7.33;2.70;;;;;;;32.71;38.06;99085.75;4975189;28;1166232;-88
2023/09/25 10:53:50;;;;;;;4.90;2.78;;;;;;;32.97;37.11;99071.91;5034441;28;20193;-89
2023/09/25 10:56:16;;;;;;;6.65;2.72;;;;;;;33.09;37.16;99081.00;5016907;28;20628;-88
2023/09/25 10:58:47;;;;;;;6.28;2.85;;;;;;;32.86;37.69;99080.81;5034342;28;20261;-88
2023/09/25 11:01:14;;;;;;;8.57;2.92;;;;;;;32.72;37.48;99076.56;5034045;28;20174;-88
2023/09/25 11:03:41;;;;;;;4.57;1.98;;;;;;;32.81;36.39;99076.03;5016748;28;20186;-88
2023/09/25 11:06:08;;;;;;;4.22;2.03;;;;;;;32.98;36.61;99070.03;5016458;28;20694;-89
2023/09/25 11:08:34;;;;;;;6.07;1.88;;;;;;;33.29;35.76;99064.44;5016164;28;20182;-88
2023/09/25 11:11:02;;;;;;;5.13;2.15;;;;;;;33.41;35.59;99063.44;5034346;28;20171;-88
2023/09/25 11:13:29;;;;;;;3.05;1.70;;;;;;;33.52;34.16;99058.31;5034014;28;20270;-87
2023/09/25 11:15:56;;;;;;;5.90;2.60;;;;;;;33.42;34.17;99059.69;5034280;28;20194;-88
2023/09/25 11:18:22;;;;;;;6.85;1.90;;;;;;;33.54;34.05;99051.59;5027034;28;20248;-88
2023/09/25 11:20:51;;;;;;;3.78;1.83;;;;;;;33.65;33.42;99055.47;5014164;28;20577;-89
2023/09/25 11:23:17;;;;;;;5.90;2.28;;;;;;;33.70;33.75;99056.38;5014118;28;20633;-88
2023/09/25 11:25:44;;;;;;;4.57;2.28;;;;;;;33.60;33.09;99058.00;5021514;28;20237;-88
2023/09/25 11:28:18;;;;;;;5.35;2.10;;;;;;;33.27;33.47;99063.84;5033740;28;20692;-87
2023/09/25 11:30:48;;;;;;;3.88;1.80;;;;;;;33.38;33.63;99044.91;5033748;28;20188;-88
2023/09/25 11:33:18;;;;;;;4.57;1.90;;;;;;;33.29;34.00;99046.28;5033781;28;20278;-88
2023/09/25 11:35:47;;;;;;;5.25;2.00;;;;;;;33.70;33.16;99042.78;5016216;28;20175;-89